createdAt,value
2023-08-12T00:02:24.464Z,17.86
2023-08-12T00:07:25.916Z,17.87
2023-08-12T00:12:27.664Z,17.81
2023-08-12T00:17:29.256Z,17.76
2023-08-12T00:22:30.725Z,17.74
2023-08-12T00:27:32.245Z,17.72
2023-08-12T00:32:33.790Z,17.66
2023-08-12T00:37:35.240Z,17.63
2023-08-12T00:42:36.737Z,17.52
2023-08-12T00:47:38.617Z,17.47
2023-08-12T00:52:41.272Z,17.40
2023-08-12T00:57:42.807Z,17.33
2023-08-12T01:02:49.256Z,17.28
2023-08-12T01:07:51.044Z,17.22
2023-08-12T01:13:07.901Z,17.03
2023-08-12T01:18:10.544Z,16.94
2023-08-12T01:23:15.756Z,16.88
2023-08-12T01:28:17.272Z,16.89
2023-08-12T01:33:43.456Z,16.87
2023-08-12T01:38:48.019Z,16.84
2023-08-12T01:43:49.596Z,16.78
2023-08-12T01:48:51.150Z,16.78
2023-08-12T01:53:52.641Z,16.73
2023-08-12T01:58:54.148Z,16.69
2023-08-12T02:03:55.719Z,16.67
2023-08-12T02:08:57.419Z,16.57
2023-08-12T02:13:58.877Z,16.51
2023-08-12T02:19:00.349Z,16.45
2023-08-12T02:24:01.839Z,16.36
2023-08-12T02:29:03.356Z,16.29
2023-08-12T02:34:05.012Z,16.32
2023-08-12T02:39:06.469Z,16.26
2023-08-12T02:44:07.914Z,16.24
2023-08-12T02:49:09.409Z,16.21
2023-08-12T02:54:10.895Z,16.22
2023-08-12T02:59:12.364Z,16.18
2023-08-12T03:04:13.868Z,16.22
2023-08-12T03:09:17.597Z,16.22
2023-08-12T03:14:19.277Z,16.20
2023-08-12T03:19:20.725Z,16.20
2023-08-12T03:24:22.628Z,16.10
2023-08-12T03:29:24.171Z,16.08
2023-08-12T03:34:25.634Z,16.08
2023-08-12T03:39:27.194Z,16.07
2023-08-12T03:44:28.701Z,16.10
2023-08-12T03:49:30.239Z,16.06
2023-08-12T03:54:31.695Z,16.03
2023-08-12T03:59:33.187Z,16.04
2023-08-12T04:04:34.682Z,16.10
2023-08-12T04:09:36.144Z,16.11
2023-08-12T04:14:37.634Z,16.17
2023-08-12T04:19:39.891Z,16.13
2023-08-12T04:24:41.715Z,16.20
2023-08-12T04:29:43.774Z,16.26
2023-08-12T04:34:46.920Z,16.30
2023-08-12T04:39:48.561Z,16.27
2023-08-12T04:44:50.171Z,16.37
2023-08-12T04:49:51.665Z,16.51
2023-08-12T04:54:56.228Z,16.61
2023-08-12T04:59:57.912Z,16.82
2023-08-12T05:04:59.501Z,17.00
2023-08-12T05:10:01.031Z,17.23
2023-08-12T05:15:02.663Z,17.47
2023-08-12T05:20:04.842Z,17.67
2023-08-12T05:25:06.636Z,18.00
2023-08-12T05:30:08.483Z,18.15
2023-08-12T05:35:10.223Z,18.39
2023-08-12T05:40:12.643Z,18.61
2023-08-12T05:45:14.234Z,18.85
2023-08-12T05:50:15.791Z,19.18
2023-08-12T05:55:17.324Z,19.50
2023-08-12T06:00:18.800Z,19.92
2023-08-12T06:05:20.322Z,20.03
2023-08-12T06:10:21.768Z,20.10
2023-08-12T06:15:23.407Z,20.39
2023-08-12T06:20:25.692Z,20.72
2023-08-12T06:25:27.178Z,20.79
2023-08-12T06:30:28.884Z,20.88
2023-08-12T06:35:30.578Z,21.23
2023-08-12T06:40:33.125Z,21.71
2023-08-12T06:45:34.608Z,22.05
2023-08-12T06:50:36.120Z,22.27
2023-08-12T06:55:37.580Z,22.48
2023-08-12T07:00:39.061Z,22.68
2023-08-12T07:05:40.533Z,22.84
2023-08-12T07:10:42.686Z,23.13
2023-08-12T07:15:44.770Z,23.17
2023-08-12T07:20:46.264Z,23.20
2023-08-12T07:25:48.170Z,23.35
2023-08-12T07:30:50.621Z,23.37
2023-08-12T07:35:52.202Z,23.18
2023-08-12T07:40:54.973Z,23.37
2023-08-12T07:46:08.420Z,23.74
2023-08-12T07:51:11.651Z,23.97
2023-08-12T07:56:13.133Z,24.04
2023-08-12T08:01:14.930Z,24.16
2023-08-12T08:06:16.498Z,24.36
2023-08-12T08:11:18.005Z,24.55
2023-08-12T08:16:19.520Z,24.69
2023-08-12T08:21:21.077Z,24.87
2023-08-12T08:26:22.555Z,25.08
2023-08-12T08:31:24.011Z,25.22
2023-08-12T08:36:25.749Z,25.24
2023-08-12T08:41:31.308Z,25.43
2023-08-12T08:46:32.810Z,25.52
2023-08-12T08:51:34.357Z,25.79
2023-08-12T08:56:40.607Z,25.93
2023-08-12T09:01:53.146Z,26.03
2023-08-12T09:06:54.961Z,26.26
2023-08-12T09:11:56.711Z,26.41
2023-08-12T09:16:59.858Z,26.58
2023-08-12T09:22:04.407Z,26.78
2023-08-12T09:27:05.875Z,26.76
2023-08-12T09:32:18.394Z,26.98
2023-08-12T09:37:21.514Z,26.85
2023-08-12T09:42:22.966Z,27.11
2023-08-12T09:47:27.187Z,27.21
2023-08-12T09:52:28.731Z,27.19
2023-08-12T09:57:34.339Z,27.24
2023-08-12T10:02:36.080Z,27.40
2023-08-12T10:07:37.570Z,27.58
2023-08-12T10:12:39.327Z,27.64
2023-08-12T10:17:44.017Z,27.64
2023-08-12T10:22:46.274Z,27.69
2023-08-12T10:27:47.724Z,27.84
2023-08-12T10:32:50.008Z,27.88
2023-08-12T10:37:51.954Z,27.86
2023-08-12T10:42:53.536Z,27.86
2023-08-12T10:48:18.106Z,27.97
2023-08-12T10:53:33.121Z,28.09
2023-08-12T10:58:48.185Z,28.15
2023-08-12T11:03:50.288Z,28.22
2023-08-12T11:08:53.935Z,28.19
2023-08-12T11:13:57.853Z,28.30
2023-08-12T11:19:00.411Z,28.28
2023-08-12T11:24:02.253Z,28.25
2023-08-12T11:29:09.972Z,28.32
2023-08-12T11:34:11.534Z,28.37
2023-08-12T11:39:13.114Z,28.43
2023-08-12T11:44:17.062Z,28.38
2023-08-12T11:49:19.240Z,28.49
2023-08-12T11:54:21.461Z,28.49
2023-08-12T11:59:23.427Z,28.49
2023-08-12T12:04:25.358Z,28.44
2023-08-12T12:09:27.687Z,28.65
2023-08-12T12:14:29.580Z,28.49
2023-08-12T12:19:31.105Z,28.55
2023-08-12T12:24:47.365Z,28.67
2023-08-12T12:29:48.842Z,28.71
2023-08-12T12:34:50.682Z,28.74
2023-08-12T12:39:52.203Z,28.70
2023-08-12T12:44:53.647Z,28.73
2023-08-12T12:49:55.180Z,28.81
2023-08-12T12:54:58.608Z,28.81
2023-08-12T13:00:00.256Z,28.91
2023-08-12T13:05:01.757Z,29.02
2023-08-12T13:10:03.736Z,29.10
2023-08-12T13:15:05.725Z,28.92
2023-08-12T13:20:08.042Z,28.97
2023-08-12T13:25:09.694Z,28.80
2023-08-12T13:30:14.775Z,28.93
2023-08-12T13:35:16.359Z,29.08
2023-08-12T13:40:18.310Z,29.24
2023-08-12T13:45:19.985Z,29.30
2023-08-12T13:50:21.979Z,29.27
2023-08-12T13:55:23.454Z,29.31
2023-08-12T14:00:25.782Z,29.38
2023-08-12T14:05:27.385Z,29.30
2023-08-12T14:10:28.880Z,29.33
2023-08-12T14:15:30.355Z,29.39
2023-08-12T14:20:31.876Z,29.48
2023-08-12T14:25:33.346Z,29.42
2023-08-12T14:30:35.027Z,29.49
2023-08-12T14:35:36.967Z,29.64
2023-08-12T14:40:38.456Z,29.58
2023-08-12T14:45:39.918Z,29.61
2023-08-12T14:50:41.772Z,29.50
2023-08-12T14:55:43.296Z,29.50
2023-08-12T15:00:45.334Z,29.35
2023-08-12T15:05:47.376Z,29.34
2023-08-12T15:10:48.870Z,29.40
2023-08-12T15:15:51.720Z,29.46
2023-08-12T15:20:53.239Z,29.31
2023-08-12T15:25:54.730Z,29.29
2023-08-12T15:30:56.302Z,29.27
2023-08-12T15:35:57.952Z,29.24
2023-08-12T15:40:59.447Z,29.09
2023-08-12T15:46:00.927Z,28.99
2023-08-12T15:51:03.106Z,29.07
2023-08-12T15:56:04.725Z,29.00
2023-08-12T16:01:07.499Z,28.82
2023-08-12T16:06:09.001Z,28.95
2023-08-12T16:11:10.587Z,29.00
2023-08-12T16:16:12.095Z,28.95
2023-08-12T16:21:13.635Z,28.98
2023-08-12T16:26:15.094Z,28.78
2023-08-12T16:31:16.619Z,28.55
2023-08-12T16:36:18.155Z,28.46
2023-08-12T16:41:19.685Z,28.40
2023-08-12T16:46:23.577Z,28.36
2023-08-12T16:51:25.083Z,28.31
2023-08-12T16:56:26.593Z,28.22
2023-08-12T17:01:28.105Z,28.16
2023-08-12T17:06:29.627Z,28.12
2023-08-12T17:11:31.738Z,28.08
2023-08-12T17:16:33.235Z,27.99
2023-08-12T17:21:34.825Z,27.88
2023-08-12T17:26:36.271Z,27.79
2023-08-12T17:31:37.731Z,27.69
2023-08-12T17:36:39.197Z,27.58
2023-08-12T17:41:40.690Z,27.45
2023-08-12T17:46:43.459Z,27.34
2023-08-12T17:51:45.006Z,27.19
2023-08-12T17:56:46.476Z,27.13
2023-08-12T18:01:48.729Z,27.05
2023-08-12T18:06:50.258Z,26.95
2023-08-12T18:11:51.765Z,26.87
2023-08-12T18:16:53.441Z,26.75
2023-08-12T18:21:55.005Z,26.63
2023-08-12T18:26:57.072Z,26.47
2023-08-12T18:31:59.565Z,26.33
2023-08-12T18:37:01.034Z,26.25
2023-08-12T18:42:02.599Z,26.21
2023-08-12T18:47:04.197Z,26.15
2023-08-12T18:52:05.691Z,26.16
2023-08-12T18:57:07.174Z,26.07
2023-08-12T19:02:09.832Z,26.04
2023-08-12T19:07:11.381Z,25.97
2023-08-12T19:12:13.135Z,25.90
2023-08-12T19:17:14.786Z,25.79
2023-08-12T19:22:16.451Z,25.67
2023-08-12T19:27:18.015Z,25.58
2023-08-12T19:32:19.551Z,25.53
2023-08-12T19:37:21.009Z,25.52
2023-08-12T19:42:22.543Z,25.45
2023-08-12T19:47:24.019Z,25.39
2023-08-12T19:52:25.482Z,25.24
2023-08-12T19:57:27.884Z,25.16
2023-08-12T20:02:38.465Z,25.16
2023-08-12T20:07:42.406Z,25.16
2023-08-12T20:12:44.331Z,24.96
2023-08-12T20:17:46.312Z,24.93
2023-08-12T20:23:03.458Z,24.79
2023-08-12T20:28:07.856Z,24.76
2023-08-12T20:33:09.660Z,24.66
2023-08-12T20:38:11.185Z,24.47
2023-08-12T20:43:12.865Z,24.38
2023-08-12T20:48:14.714Z,24.27
2023-08-12T20:53:16.503Z,24.12
2023-08-12T20:58:17.973Z,23.95
2023-08-12T21:03:19.546Z,23.84
2023-08-12T21:08:21.079Z,23.67
2023-08-12T21:13:22.761Z,23.62
2023-08-12T21:18:25.013Z,23.57
2023-08-12T21:23:26.478Z,23.52
2023-08-12T21:28:27.936Z,23.47
2023-08-12T21:33:29.509Z,23.54
2023-08-12T21:38:31.008Z,23.48
2023-08-12T21:43:32.480Z,23.53
2023-08-12T21:48:33.932Z,23.66
2023-08-12T21:53:35.425Z,23.56
2023-08-12T21:58:36.871Z,23.53
2023-08-12T22:03:38.421Z,23.61
2023-08-12T22:08:39.965Z,23.46
2023-08-12T22:13:41.681Z,23.42
2023-08-12T22:18:43.182Z,23.33
2023-08-12T22:23:44.628Z,23.31
2023-08-12T22:28:46.932Z,23.10
2023-08-12T22:33:48.408Z,22.98
2023-08-12T22:38:49.854Z,22.96
2023-08-12T22:43:51.674Z,22.99
2023-08-12T22:48:53.224Z,23.03
2023-08-12T22:53:54.952Z,22.97
2023-08-12T22:58:57.138Z,22.98
2023-08-12T23:03:58.640Z,22.96
2023-08-12T23:09:00.153Z,23.00
2023-08-12T23:14:01.619Z,23.09
2023-08-12T23:19:03.214Z,23.07
2023-08-12T23:24:04.930Z,23.04
2023-08-12T23:29:07.011Z,23.07
2023-08-12T23:34:08.514Z,23.10
2023-08-12T23:39:10.914Z,23.09
2023-08-12T23:44:12.429Z,23.13
2023-08-12T23:49:13.916Z,23.16
2023-08-12T23:54:15.427Z,23.17
2023-08-12T23:59:16.872Z,23.20
